Time;durP1;ratioP1;P1;durP2;ratioP2;P2;SDS_P1;SDS_P2;PMS_P1;PMS_P2;Temp;Humidity;BMP_temperature;BMP_pressure;BME280_temperature;BME280_humidity;BME280_pressure;Samples;Min_cycle;Max_cycle;Signal;HPM_P1;HPM_P2
2022/10/06 00:02:20;;;;;;;5.28;3.30;;;;;;;14.20;83.95;99151.84;5006323;28;20029;-80
2022/10/06 00:04:46;;;;;;;5.60;3.55;;;;;;;14.05;83.76;99141.06;5043368;28;20469;-80
2022/10/06 00:07:12;;;;;;;7.47;4.38;;;;;;;14.13;83.99;99152.09;5030782;28;20052;-80
2022/10/06 00:09:37;;;;;;;4.50;3.25;;;;;;;14.27;83.91;99165.84;5033468;28;20469;-81
2022/10/06 00:12:03;;;;;;;5.75;3.60;;;;;;;14.26;83.09;99146.22;5011840;28;20048;-81
2022/10/06 00:14:28;;;;;;;6.35;3.00;;;;;;;14.20;83.57;99149.16;5027742;28;20460;-81
2022/10/06 00:16:54;;;;;;;6.78;3.55;;;;;;;14.28;83.71;99154.03;5025765;28;20029;-82
2022/10/06 00:19:19;;;;;;;6.63;3.67;;;;;;;14.23;83.68;99154.03;5031196;28;20025;-81
2022/10/06 00:21:45;;;;;;;6.00;2.90;;;;;;;14.18;83.82;99143.25;5009557;28;20033;-82
2022/10/06 00:24:10;;;;;;;5.28;3.20;;;;;;;14.22;83.54;99147.03;5030368;28;20055;-82
2022/10/06 00:26:36;;;;;;;3.72;3.00;;;;;;;14.09;83.44;99144.84;5032922;28;20048;-79
2022/10/06 00:29:02;;;;;;;7.53;3.35;;;;;;;14.23;84.02;99154.84;5046170;28;20056;-82
2022/10/06 00:31:28;;;;;;;5.03;3.70;;;;;;;14.19;83.60;99147.56;5045954;28;20039;-82
2022/10/06 00:33:53;;;;;;;4.45;3.15;;;;;;;14.26;83.51;99145.44;5024199;28;20032;-82
2022/10/06 00:36:19;;;;;;;4.93;3.58;;;;;;;14.37;83.23;99155.19;5010757;28;20113;-79
2022/10/06 00:38:44;;;;;;;3.72;2.85;;;;;;;14.20;83.41;99146.47;5029525;28;20032;-82
2022/10/06 00:41:13;;;;;;;4.47;3.30;;;;;;;14.26;83.54;99175.78;5031275;28;20432;-82
2022/10/06 00:43:55;;;;;;;4.90;3.80;;;;;;;14.35;83.20;99162.66;5034680;28;20037;-82
2022/10/06 00:46:35;;;;;;;3.88;3.05;;;;;;;14.27;83.95;99168.53;5034409;28;20036;-81
2022/10/06 00:49:06;;;;;;;6.85;3.83;;;;;;;14.27;83.59;99172.03;5047305;28;20089;-82
2022/10/06 00:51:35;;;;;;;3.70;3.30;;;;;;;14.31;83.39;99175.00;5044704;28;20484;-82
2022/10/06 00:54:01;;;;;;;7.20;3.90;;;;;;;14.16;83.74;99169.56;5031452;28;20094;-82
2022/10/06 00:56:27;;;;;;;4.72;3.72;;;;;;;14.24;83.93;99187.88;5033754;28;20037;-81
2022/10/06 00:58:52;;;;;;;4.28;3.10;;;;;;;14.27;83.62;99192.69;5036804;28;20048;-81
2022/10/06 01:01:18;;;;;;;6.55;3.40;;;;;;;14.22;83.80;99174.69;5030971;28;20508;-82
2022/10/06 01:03:54;;;;;;;5.00;2.90;;;;;;;14.22;83.70;99185.44;5014782;28;20032;-81
2022/10/06 01:06:19;;;;;;;4.38;3.28;;;;;;;14.31;83.73;99204.53;5032382;28;20033;-82
2022/10/06 01:08:45;;;;;;;5.28;3.13;;;;;;;14.37;83.59;99219.63;5013350;28;20051;-82
2022/10/06 01:11:13;;;;;;;4.30;3.05;;;;;;;14.33;83.15;99276.81;5012747;28;20083;-82
2022/10/06 01:13:42;;;;;;;4.28;3.25;;;;;;;14.12;84.20;99259.75;5040888;28;20114;-82
2022/10/06 01:16:25;;;;;;;7.40;3.13;;;;;;;14.11;84.57;99268.84;5031782;28;20631;-82
2022/10/06 01:18:53;;;;;;;3.22;2.28;;;;;;;13.95;85.28;99285.97;5051331;28;20040;-83
2022/10/06 01:21:39;;;;;;;5.25;3.20;;;;;;;13.82;85.42;99294.47;5012313;28;20032;-83
2022/10/06 01:24:04;;;;;;;4.63;2.30;;;;;;;13.82;86.07;99310.56;5052048;28;20121;-82
2022/10/06 01:26:32;;;;;;;5.55;2.60;;;;;;;13.68;85.81;99291.41;5048774;28;20115;-82
2022/10/06 01:28:58;;;;;;;1.85;1.60;;;;;;;13.61;86.98;99309.59;5038309;28;20866;-82
2022/10/06 01:31:24;;;;;;;3.97;2.00;;;;;;;13.57;85.90;99295.09;5033464;28;20040;-82
2022/10/06 01:33:51;;;;;;;4.10;2.00;;;;;;;13.56;86.29;99303.41;5021475;28;20071;-82
2022/10/06 01:36:17;;;;;;;2.63;1.60;;;;;;;13.46;86.57;99301.44;5013918;28;20032;-83
2022/10/06 01:38:42;;;;;;;2.85;1.50;;;;;;;13.39;86.65;99304.31;5012974;28;20032;-83
2022/10/06 01:41:07;;;;;;;3.20;2.00;;;;;;;13.34;87.46;99319.56;5020069;28;20112;-83
2022/10/06 01:43:33;;;;;;;4.20;1.90;;;;;;;13.40;87.23;99326.59;5014644;28;20025;-83
2022/10/06 01:45:58;;;;;;;4.05;1.73;;;;;;;13.34;87.05;99315.03;5049739;28;20035;-83
2022/10/06 01:48:24;;;;;;;5.38;1.70;;;;;;;13.41;86.47;99329.00;5053165;28;20076;-83
2022/10/06 01:50:50;;;;;;;3.05;1.65;;;;;;;13.38;86.44;99326.84;5041411;28;20029;-83
2022/10/06 01:53:15;;;;;;;2.45;1.90;;;;;;;13.20;87.26;99337.94;5024765;28;20424;-83
2022/10/06 01:55:41;;;;;;;1.90;1.50;;;;;;;13.34;86.82;99352.56;5050475;28;20028;-83
2022/10/06 01:58:08;;;;;;;2.67;1.58;;;;;;;13.21;88.25;99361.00;5016649;28;20036;-84
2022/10/06 02:00:33;;;;;;;1.80;1.70;;;;;;;13.21;88.31;99373.59;5052599;28;20033;-84
2022/10/06 02:02:58;;;;;;;3.05;1.50;;;;;;;13.15;87.59;99364.69;5015317;28;20537;-84
2022/10/06 02:05:24;;;;;;;5.15;1.55;;;;;;;13.12;88.28;99391.19;5023425;28;20032;-84
2022/10/06 02:07:49;;;;;;;5.20;1.42;;;;;;;13.15;88.32;99396.06;5021421;28;20048;-84
2022/10/06 02:10:14;;;;;;;1.50;1.40;;;;;;;13.06;88.67;99409.06;5034219;28;20874;-83
2022/10/06 02:12:41;;;;;;;1.13;1.02;;;;;;;12.92;87.95;99407.81;5033068;28;20116;-85
2022/10/06 02:15:09;;;;;;;1.50;1.10;;;;;;;12.70;89.05;99415.03;5018285;28;20029;-84
2022/10/06 02:17:36;;;;;;;2.85;1.02;;;;;;;12.69;88.69;99426.78;5045328;28;20473;-83
2022/10/06 02:20:04;;;;;;;2.13;1.00;;;;;;;12.81;88.36;99424.81;5031616;28;20021;-84
2022/10/06 02:22:29;;;;;;;2.25;0.70;;;;;;;12.92;87.39;99426.56;5014038;28;20582;-84
2022/10/06 02:24:55;;;;;;;3.75;1.33;;;;;;;12.80;87.07;99431.22;5029447;28;20041;-84
2022/10/06 02:27:20;;;;;;;1.95;1.58;;;;;;;12.86;87.69;99454.34;5017538;28;20114;-84
2022/10/06 02:29:47;;;;;;;1.17;0.88;;;;;;;12.90;86.74;99452.81;5056858;28;20101;-84
2022/10/06 02:32:13;;;;;;;1.33;0.95;;;;;;;12.74;86.73;99432.22;5037083;28;20048;-84
2022/10/06 02:34:38;;;;;;;5.43;1.13;;;;;;;12.86;86.19;99442.81;5021449;28;20594;-84
2022/10/06 02:37:04;;;;;;;1.15;1.00;;;;;;;12.87;86.28;99442.56;5015687;28;20037;-84
2022/10/06 02:39:29;;;;;;;4.07;1.40;;;;;;;13.01;85.76;99456.41;5018492;28;20033;-84
2022/10/06 02:41:54;;;;;;;3.60;0.93;;;;;;;12.84;85.64;99434.22;5023443;28;20044;-84
2022/10/06 02:44:20;;;;;;;2.42;0.93;;;;;;;12.70;85.71;99428.41;5017558;28;20037;-84
2022/10/06 02:46:47;;;;;;;3.13;0.82;;;;;;;12.49;85.57;99379.13;5022212;28;20033;-83
2022/10/06 02:49:12;;;;;;;1.90;0.88;;;;;;;12.72;85.51;99420.94;5035074;28;20036;-83
2022/10/06 02:51:37;;;;;;;0.95;0.70;;;;;;;12.83;85.47;99454.84;5029349;28;20377;-83
2022/10/06 02:54:03;;;;;;;5.30;1.30;;;;;;;12.62;85.17;99443.03;5018414;28;20064;-83
2022/10/06 02:56:28;;;;;;;3.88;1.05;;;;;;;12.89;85.17;99463.78;5023085;28;20032;-84
2022/10/06 02:58:54;;;;;;;3.88;1.17;;;;;;;12.91;84.90;99461.66;5037455;28;20036;-84
2022/10/06 03:01:25;;;;;;;1.98;0.75;;;;;;;12.71;85.39;99484.41;5052399;28;20035;-83
2022/10/06 03:03:50;;;;;;;11.60;1.35;;;;;;;12.61;85.36;99457.50;5052558;28;20068;-84
2022/10/06 03:06:28;;;;;;;1.05;0.57;;;;;;;12.75;85.08;99490.09;5031432;28;20056;-83
2022/10/06 03:08:57;;;;;;;4.10;1.38;;;;;;;12.46;85.80;99475.19;5048760;28;20027;-84
2022/10/06 03:11:25;;;;;;;1.10;0.82;;;;;;;12.66;85.26;99476.31;5035535;28;20288;-84
2022/10/06 03:13:51;;;;;;;0.50;0.40;;;;;;;12.76;84.22;99478.31;5031289;28;20028;-84
2022/10/06 03:16:22;;;;;;;2.13;0.80;;;;;;;12.80;84.27;99492.81;5050758;28;20384;-84
2022/10/06 03:18:50;;;;;;;1.60;0.90;;;;;;;12.67;84.99;99483.28;5037170;28;20481;-84
2022/10/06 03:21:23;;;;;;;1.35;0.82;;;;;;;12.41;85.83;99488.50;5012117;28;20033;-84
2022/10/06 03:23:50;;;;;;;1.33;1.05;;;;;;;12.65;84.63;99489.94;5030177;28;20435;-84
2022/10/06 03:26:19;;;;;;;2.45;0.73;;;;;;;12.52;85.60;99504.47;5013001;28;20071;-84
2022/10/06 03:28:45;;;;;;;2.60;0.93;;;;;;;12.68;84.55;99500.16;5046211;28;20028;-84
2022/10/06 03:31:11;;;;;;;4.75;1.02;;;;;;;12.29;85.06;99499.31;5012319;28;20455;-85
2022/10/06 03:33:36;;;;;;;3.22;0.80;;;;;;;12.09;85.97;99512.34;5031190;28;20041;-84
2022/10/06 03:36:07;;;;;;;2.67;1.10;;;;;;;12.42;85.49;99535.66;5034043;28;20040;-84
2022/10/06 03:38:33;;;;;;;2.00;0.77;;;;;;;12.37;84.76;99517.63;5011947;28;20052;-84
2022/10/06 03:41:19;;;;;;;1.38;1.00;;;;;;;12.61;85.09;99553.91;5031393;28;20029;-84
2022/10/06 03:43:46;;;;;;;4.97;1.42;;;;;;;12.42;84.68;99539.16;5030063;28;20037;-84
2022/10/06 03:46:14;;;;;;;6.68;1.23;;;;;;;12.49;85.07;99555.03;5030543;28;20033;-83
2022/10/06 03:48:39;;;;;;;4.03;1.63;;;;;;;12.49;85.08;99563.88;5050432;28;20033;-83
2022/10/06 03:51:09;;;;;;;2.30;1.30;;;;;;;12.30;85.20;99562.47;5028092;28;20492;-84
2022/10/06 03:53:34;;;;;;;3.35;1.25;;;;;;;12.25;84.92;99569.63;5048004;28;20041;-84
2022/10/06 03:56:27;;;;;;;2.35;1.50;;;;;;;12.39;85.30;99578.97;5052339;28;20060;-84
2022/10/06 03:59:07;;;;;;;5.45;1.65;;;;;;;12.34;84.41;99574.31;5041569;28;20045;-83
2022/10/06 04:01:35;;;;;;;7.28;1.58;;;;;;;12.44;84.41;99592.44;5033343;28;20033;-81
2022/10/06 04:04:02;;;;;;;9.38;3.22;;;;;;;12.29;84.95;99597.53;5056033;28;20032;-82
2022/10/06 04:06:29;;;;;;;3.13;1.15;;;;;;;12.53;84.43;99601.69;5051130;28;20033;-81
2022/10/06 04:08:56;;;;;;;5.38;1.40;;;;;;;12.44;84.31;99611.19;5030779;28;20091;-81
2022/10/06 04:11:25;;;;;;;5.45;1.83;;;;;;;12.40;84.35;99610.03;5033872;28;20025;-81
2022/10/06 04:14:02;;;;;;;12.20;2.17;;;;;;;12.47;83.83;99611.50;5052709;28;20395;-81
2022/10/06 04:16:30;;;;;;;10.40;2.15;;;;;;;12.39;83.95;99636.00;5052159;28;20043;-81
2022/10/06 04:18:58;;;;;;;9.43;2.30;;;;;;;12.40;83.95;99628.78;5034614;28;20033;-81
2022/10/06 04:21:25;;;;;;;4.53;2.08;;;;;;;12.37;84.24;99637.28;5051648;28;20515;-81
2022/10/06 04:23:55;;;;;;;4.35;1.73;;;;;;;12.11;84.14;99616.47;5053679;28;20082;-81
2022/10/06 04:26:22;;;;;;;5.32;1.75;;;;;;;12.29;83.56;99648.38;5045343;28;20480;-83
2022/10/06 04:28:48;;;;;;;10.63;2.45;;;;;;;12.21;84.00;99654.13;5047533;28;20029;-82
2022/10/06 04:31:19;;;;;;;7.35;1.98;;;;;;;12.21;83.59;99632.72;5039872;28;20661;-82
2022/10/06 04:33:46;;;;;;;6.85;1.50;;;;;;;12.19;83.63;99651.69;5041263;28;20036;-81
2022/10/06 04:36:15;;;;;;;7.00;1.70;;;;;;;12.23;83.77;99666.19;5035833;28;20032;-81
2022/10/06 04:38:41;;;;;;;5.82;1.80;;;;;;;12.16;83.73;99662.06;5045322;28;20074;-81
2022/10/06 04:41:18;;;;;;;9.77;2.47;;;;;;;12.00;83.43;99677.00;5025466;28;20048;-81
2022/10/06 04:43:45;;;;;;;7.57;2.00;;;;;;;12.12;83.57;99671.63;5063661;28;20032;-81
2022/10/06 04:46:11;;;;;;;8.45;2.00;;;;;;;12.03;83.61;99663.94;5046788;28;20029;-82
2022/10/06 04:48:37;;;;;;;11.90;1.88;;;;;;;12.15;83.04;99669.28;5022806;28;20025;-84
2022/10/06 04:51:05;;;;;;;6.78;2.00;;;;;;;11.91;83.67;99684.59;5019139;28;20039;-85
2022/10/06 04:53:32;;;;;;;9.85;1.85;;;;;;;12.10;83.01;99700.47;5021210;28;20071;-85
2022/10/06 04:56:11;;;;;;;10.45;2.20;;;;;;;11.95;83.25;99676.88;5044968;28;20033;-85
2022/10/06 04:58:38;;;;;;;12.57;2.30;;;;;;;12.14;82.84;99698.94;5062155;28;20024;-85
2022/10/06 05:01:15;;;;;;;6.65;1.88;;;;;;;11.66;83.23;99665.31;5042719;28;20040;-86
2022/10/06 05:03:41;;;;;;;26.95;2.80;;;;;;;11.80;82.94;99685.41;5023884;28;20024;-85
2022/10/06 05:06:10;;;;;;;10.48;2.50;;;;;;;11.99;82.66;99713.63;5058724;28;20090;-85
2022/10/06 05:08:35;;;;;;;8.10;2.35;;;;;;;12.15;81.88;99720.13;5021315;28;20087;-85
2022/10/06 05:11:02;;;;;;;8.70;2.42;;;;;;;11.92;82.41;99712.97;5039411;28;20029;-85
2022/10/06 05:13:28;;;;;;;7.50;2.35;;;;;;;11.96;82.40;99724.00;5021016;28;20029;-85
2022/10/06 05:15:58;;;;;;;8.18;2.53;;;;;;;12.00;82.25;99735.88;5021182;28;20378;-85
2022/10/06 05:18:24;;;;;;;12.27;2.50;;;;;;;11.78;81.99;99733.00;5051750;28;20035;-81
2022/10/06 05:20:55;;;;;;;8.38;2.67;;;;;;;11.81;82.46;99753.94;5054135;28;20060;-81
2022/10/06 05:23:21;;;;;;;11.05;2.08;;;;;;;11.67;82.73;99752.53;5034820;28;20079;-81
2022/10/06 05:25:51;;;;;;;11.88;2.65;;;;;;;11.73;82.68;99756.16;5034749;28;20041;-81
2022/10/06 05:28:17;;;;;;;7.05;3.58;;;;;;;11.90;82.38;99773.13;5052908;28;20025;-81
2022/10/06 05:30:42;;;;;;;7.32;2.28;;;;;;;11.90;81.92;99775.78;5030987;28;20534;-81
2022/10/06 05:33:10;;;;;;;8.52;2.55;;;;;;;11.72;82.30;99758.00;5047934;28;20116;-81
2022/10/06 05:35:35;;;;;;;12.18;2.85;;;;;;;11.78;82.19;99761.59;5031504;28;20036;-82
2022/10/06 05:38:00;;;;;;;13.48;3.58;;;;;;;11.75;81.83;99756.72;5033058;28;20025;-82
2022/10/06 05:40:26;;;;;;;10.68;2.55;;;;;;;11.77;81.47;99760.78;5031026;28;20029;-82
2022/10/06 05:42:54;;;;;;;12.77;2.63;;;;;;;11.73;81.64;99786.34;5034518;28;20029;-82
2022/10/06 05:45:19;;;;;;;11.45;3.00;;;;;;;11.81;81.63;99777.19;5001486;28;20068;-82
2022/10/06 05:47:44;;;;;;;8.85;2.85;;;;;;;11.39;82.28;99747.03;5020996;28;20100;-81
2022/10/06 05:50:10;;;;;;;9.25;2.83;;;;;;;11.57;83.00;99803.09;5062000;28;20029;-81
2022/10/06 05:52:35;;;;;;;11.00;2.53;;;;;;;11.71;82.48;99793.81;5051470;28;20022;-81
2022/10/06 05:55:00;;;;;;;16.60;3.92;;;;;;;11.69;81.36;99801.25;5036208;28;20059;-81
2022/10/06 05:57:27;;;;;;;8.00;3.15;;;;;;;11.76;81.08;99793.09;5029115;28;20082;-81
2022/10/06 05:59:52;;;;;;;14.23;3.00;;;;;;;11.76;81.41;99812.66;5036150;28;20048;-81
2022/10/06 06:02:17;;;;;;;6.82;2.35;;;;;;;11.88;81.24;99823.34;5010004;28;20030;-81
2022/10/06 06:04:43;;;;;;;8.73;2.33;;;;;;;11.84;81.30;99828.34;5024987;28;20506;-81
2022/10/06 06:07:09;;;;;;;12.20;3.05;;;;;;;11.67;81.64;99805.19;5057931;28;20035;-82
2022/10/06 06:09:34;;;;;;;7.50;2.20;;;;;;;11.74;81.44;99836.13;5050071;28;20032;-81
2022/10/06 06:11:59;;;;;;;6.72;2.35;;;;;;;11.69;82.01;99829.84;5036298;28;20110;-81
2022/10/06 06:17:10;;;;;;;11.45;2.80;;;;;;;11.63;81.69;99828.06;5044607;28;20601;-81
2022/10/06 06:19:35;;;;;;;9.68;2.75;;;;;;;11.56;82.10;99844.22;5003790;28;20029;-81
2022/10/06 06:22:01;;;;;;;8.80;2.25;;;;;;;11.59;82.18;99848.28;5052928;28;20037;-81
2022/10/06 06:24:26;;;;;;;14.52;2.80;;;;;;;11.59;81.84;99851.78;5018540;28;20035;-81
2022/10/06 06:26:52;;;;;;;12.02;3.20;;;;;;;11.68;81.98;99860.31;5015332;28;20033;-81
2022/10/06 06:29:17;;;;;;;10.57;2.97;;;;;;;11.61;82.12;99855.06;5026525;28;20409;-81
2022/10/06 06:31:44;;;;;;;13.88;2.55;;;;;;;11.67;82.11;99850.66;5026813;28;20064;-81
2022/10/06 06:34:10;;;;;;;10.07;2.30;;;;;;;11.72;82.05;99867.66;5044550;28;20041;-81
2022/10/06 06:36:42;;;;;;;14.63;2.88;;;;;;;11.56;82.29;99862.13;5049928;28;20036;-81
2022/10/06 06:39:09;;;;;;;10.15;2.40;;;;;;;11.61;81.78;99865.75;5022799;28;20037;-81
2022/10/06 06:41:38;;;;;;;8.52;2.20;;;;;;;11.70;81.47;99875.09;5057782;28;20102;-81
2022/10/06 06:44:05;;;;;;;9.02;2.50;;;;;;;11.62;82.45;99883.41;5037359;28;20033;-81
2022/10/06 06:46:31;;;;;;;9.13;2.38;;;;;;;11.86;81.77;99901.16;5061975;28;20024;-81
2022/10/06 06:48:58;;;;;;;13.10;2.72;;;;;;;11.78;81.96;99911.38;5032770;28;20051;-81
2022/10/06 06:51:24;;;;;;;8.07;2.38;;;;;;;11.81;81.70;99886.84;5061632;28;20104;-81
2022/10/06 06:53:50;;;;;;;10.85;2.55;;;;;;;11.82;81.51;99893.81;5028457;28;20124;-81
2022/10/06 06:56:16;;;;;;;7.18;2.85;;;;;;;11.85;82.14;99912.09;5002911;28;20558;-81
2022/10/06 06:58:46;;;;;;;15.05;2.40;;;;;;;11.76;81.84;99897.41;5046917;28;20021;-81
2022/10/06 07:01:16;;;;;;;15.90;2.55;;;;;;;11.77;81.85;99913.22;5033085;28;20037;-81
2022/10/06 07:03:47;;;;;;;7.40;2.58;;;;;;;11.79;82.19;99913.03;5034056;28;20016;-81
2022/10/06 07:06:15;;;;;;;7.50;2.33;;;;;;;11.84;82.12;99918.47;5054133;28;20037;-81
2022/10/06 07:08:42;;;;;;;9.77;2.85;;;;;;;11.74;82.21;99932.44;5054319;28;20052;-81
2022/10/06 07:11:15;;;;;;;7.55;2.38;;;;;;;11.67;82.74;99937.06;5050650;28;20024;-81
2022/10/06 07:13:41;;;;;;;9.15;3.15;;;;;;;11.75;82.72;99944.75;5037859;28;20036;-81
2022/10/06 07:27:11;;;;;;;8.15;2.13;;;;;;;11.62;82.61;99950.25;5058795;28;20074;-80
2022/10/06 07:29:36;;;;;;;14.50;3.47;;;;;;;11.66;82.93;99974.69;5057825;28;20025;-81
2022/10/06 07:32:02;;;;;;;8.38;2.95;;;;;;;11.69;82.87;99968.91;5010477;28;20028;-81
2022/10/06 07:34:29;;;;;;;10.38;2.25;;;;;;;11.48;83.17;99969.41;5047256;28;20024;-81
2022/10/06 07:36:55;;;;;;;14.40;2.63;;;;;;;11.61;82.01;99978.06;5022098;28;20044;-81
2022/10/06 07:39:21;;;;;;;12.70;2.35;;;;;;;11.54;82.89;99984.53;5025587;28;20036;-81
2022/10/06 07:41:46;;;;;;;14.05;2.97;;;;;;;11.45;83.73;99997.38;5029360;28;20032;-81
2022/10/06 07:44:11;;;;;;;12.98;3.17;;;;;;;11.07;84.76;99989.63;5041422;28;20043;-81
2022/10/06 07:46:37;;;;;;;10.48;2.95;;;;;;;11.08;83.80;99964.56;5018843;28;20369;-81
2022/10/06 07:49:02;;;;;;;10.82;2.90;;;;;;;11.44;83.25;99998.44;5032131;28;20136;-81
2022/10/06 07:51:28;;;;;;;11.30;3.90;;;;;;;11.77;82.08;100027.44;5034202;28;20028;-81
2022/10/06 07:53:53;;;;;;;13.98;3.47;;;;;;;11.27;82.87;100016.13;5036984;28;20041;-80
2022/10/06 07:56:19;;;;;;;10.48;3.05;;;;;;;11.86;82.29;100031.44;5033071;28;20045;-81
2022/10/06 07:58:49;;;;;;;7.30;3.28;;;;;;;11.77;82.82;100033.59;5051076;28;20536;-81
2022/10/06 08:01:17;;;;;;;11.88;2.58;;;;;;;11.96;81.93;100039.72;5040680;28;20039;-80
2022/10/06 08:03:47;;;;;;;14.40;3.72;;;;;;;11.61;82.97;100034.22;5014699;28;20041;-81
2022/10/06 08:06:14;;;;;;;11.75;3.20;;;;;;;12.08;81.38;100035.19;5054662;28;20108;-81
2022/10/06 08:08:41;;;;;;;18.13;3.63;;;;;;;12.11;81.42;100023.22;5042677;28;21786;-80
2022/10/06 08:11:08;;;;;;;16.77;3.17;;;;;;;12.00;81.02;100028.34;5045576;28;20059;-81
2022/10/06 08:13:35;;;;;;;10.82;2.80;;;;;;;12.07;81.48;100041.63;5022056;28;20028;-80
2022/10/06 08:16:10;;;;;;;13.02;3.17;;;;;;;12.13;81.48;100040.69;5058391;28;20401;-81
2022/10/06 08:18:36;;;;;;;15.10;3.05;;;;;;;12.20;81.26;100052.13;5047846;28;20102;-81
2022/10/06 08:21:17;;;;;;;12.13;2.83;;;;;;;12.11;81.13;100048.13;5030691;28;20374;-81
2022/10/06 08:23:44;;;;;;;12.60;2.95;;;;;;;11.92;80.03;100038.56;5025542;28;20032;-81
2022/10/06 08:26:11;;;;;;;10.95;3.42;;;;;;;12.13;80.61;100059.44;5023178;28;20461;-80
2022/10/06 08:28:38;;;;;;;20.92;3.60;;;;;;;11.97;79.65;100065.41;5022357;28;20033;-81
2022/10/06 08:31:05;;;;;;;11.40;2.38;;;;;;;12.08;80.43;100074.56;5029710;28;20128;-80
2022/10/06 08:33:33;;;;;;;13.85;3.13;;;;;;;12.17;79.93;100078.50;5044643;28;20033;-81
2022/10/06 08:36:05;;;;;;;8.57;3.92;;;;;;;12.23;80.03;100072.28;5045094;28;20053;-80
2022/10/06 08:38:30;;;;;;;17.00;3.60;;;;;;;12.17;79.70;100071.31;5027593;28;20028;-80
2022/10/06 08:40:56;;;;;;;8.57;2.70;;;;;;;12.38;79.77;100062.75;5032214;28;20052;-81
2022/10/06 08:43:23;;;;;;;8.63;2.50;;;;;;;12.29;79.29;100082.88;5047889;28;20028;-81
2022/10/06 08:45:53;;;;;;;14.70;2.85;;;;;;;12.33;79.63;100080.53;5035916;28;20027;-81
2022/10/06 08:48:25;;;;;;;16.17;3.13;;;;;;;12.28;79.04;100054.47;5030278;28;20068;-80
2022/10/06 08:51:14;;;;;;;16.50;3.22;;;;;;;12.43;78.79;100088.81;5017675;28;20036;-81
2022/10/06 08:53:57;;;;;;;13.88;3.25;;;;;;;12.45;78.92;100100.94;5044653;28;20095;-80
2022/10/06 08:56:26;;;;;;;11.32;3.05;;;;;;;12.55;78.52;100100.38;5032848;28;20039;-81
2022/10/06 08:58:53;;;;;;;10.88;3.13;;;;;;;12.56;77.56;100100.16;5046353;28;20119;-80
2022/10/06 09:01:24;;;;;;;12.30;3.30;;;;;;;12.50;77.76;100100.25;5031242;28;20713;-80
2022/10/06 09:04:00;;;;;;;14.00;2.90;;;;;;;12.45;76.55;100102.81;5033875;28;20044;-81
2022/10/06 09:06:44;;;;;;;9.77;3.60;;;;;;;12.52;76.33;100109.69;5043396;28;20025;-80
2022/10/06 09:09:20;;;;;;;15.07;3.50;;;;;;;12.53;75.67;100115.88;5049013;28;20039;-81
2022/10/06 09:11:53;;;;;;;11.88;3.30;;;;;;;12.48;75.38;100113.06;5029175;28;20132;-80
2022/10/06 09:14:26;;;;;;;13.38;3.30;;;;;;;12.51;74.90;100115.28;5024315;28;20504;-80
2022/10/06 09:16:59;;;;;;;13.63;2.90;;;;;;;12.52;74.53;100130.28;5053934;28;20037;-80
2022/10/06 09:19:35;;;;;;;12.48;3.08;;;;;;;12.47;74.25;100114.13;5036508;28;20025;-80
2022/10/06 09:22:03;;;;;;;9.40;2.55;;;;;;;12.56;73.96;100124.25;5053522;28;20084;-83
2022/10/06 09:24:35;;;;;;;8.75;2.45;;;;;;;12.45;73.79;100126.91;5046053;28;20181;-80
2022/10/06 09:27:15;;;;;;;9.70;2.75;;;;;;;12.42;73.36;100119.34;5051795;28;20477;-81
2022/10/06 09:29:41;;;;;;;15.48;3.05;;;;;;;11.85;73.07;100041.31;5057102;28;20623;-80
2022/10/06 09:32:06;;;;;;;12.20;3.45;;;;;;;12.42;73.28;100119.34;5051611;28;20120;-80
2022/10/06 09:34:45;;;;;;;8.00;2.47;;;;;;;12.40;72.74;100124.09;5022825;28;20024;-80
2022/10/06 09:37:12;;;;;;;9.30;4.13;;;;;;;12.48;72.31;100135.31;5035458;28;20473;-80
2022/10/06 09:39:48;;;;;;;13.82;4.25;;;;;;;12.57;72.10;100119.72;5032943;28;20060;-80
2022/10/06 09:42:28;;;;;;;15.27;2.80;;;;;;;12.55;72.30;100133.34;5058864;28;20127;-81
2022/10/06 09:45:05;;;;;;;7.35;2.20;;;;;;;12.60;72.18;100132.66;5053598;28;20076;-80
2022/10/06 09:47:45;;;;;;;24.40;4.47;;;;;;;12.62;72.42;100146.63;5057272;28;20048;-81
2022/10/06 09:50:15;;;;;;;18.40;3.03;;;;;;;12.72;72.05;100144.19;5059565;28;20032;-80
2022/10/06 09:53:04;;;;;;;8.32;2.58;;;;;;;12.73;71.68;100149.31;5047822;28;20073;-80
2022/10/06 09:55:33;;;;;;;13.80;2.90;;;;;;;12.62;71.49;100146.63;5048937;28;20027;-80
2022/10/06 09:57:59;;;;;;;11.68;2.50;;;;;;;12.56;71.48;100142.16;5038115;28;20569;-80
2022/10/06 10:00:35;;;;;;;10.43;2.17;;;;;;;12.57;70.85;100151.84;5022681;28;20029;-80
2022/10/06 10:03:04;;;;;;;18.70;2.60;;;;;;;12.49;71.36;100118.16;5017143;28;20120;-77
2022/10/06 10:05:36;;;;;;;11.60;3.10;;;;;;;12.60;71.41;100157.56;5055355;28;20036;-80
2022/10/06 10:08:18;;;;;;;14.43;3.17;;;;;;;12.58;71.37;100164.22;5056271;28;20617;-80
2022/10/06 10:10:43;;;;;;;15.35;3.08;;;;;;;12.67;70.44;100160.97;5036027;28;20090;-80
2022/10/06 10:13:25;;;;;;;14.35;2.30;;;;;;;12.73;70.87;100153.88;5051876;28;20025;-80
2022/10/06 10:16:01;;;;;;;12.32;2.90;;;;;;;12.71;70.58;100159.44;5037221;28;20116;-80
2022/10/06 10:18:30;;;;;;;16.95;3.10;;;;;;;12.61;71.17;100140.47;5052843;28;20032;-80
2022/10/06 10:21:06;;;;;;;15.07;2.88;;;;;;;12.95;70.86;100163.00;5062807;28;20082;-80
2022/10/06 10:23:35;;;;;;;13.13;2.85;;;;;;;13.07;70.25;100161.16;5050611;28;20365;-80
2022/10/06 10:26:12;;;;;;;14.90;3.08;;;;;;;13.14;70.05;100161.06;5047813;28;20059;-80
2022/10/06 10:29:17;;;;;;;8.27;2.80;;;;;;;13.22;70.12;100164.19;5065689;28;20027;-80
2022/10/06 10:31:48;;;;;;;22.10;3.30;;;;;;;13.11;70.24;100132.03;5031827;28;20040;-80
2022/10/06 10:34:38;;;;;;;12.25;2.72;;;;;;;13.39;69.56;100159.75;5032558;28;20055;-79
2022/10/06 10:37:16;;;;;;;11.38;2.53;;;;;;;13.48;68.91;100161.03;5030488;28;20044;-81
2022/10/06 10:39:49;;;;;;;8.60;2.53;;;;;;;13.53;68.83;100168.38;5045128;28;20025;-79
2022/10/06 10:42:28;;;;;;;13.73;2.65;;;;;;;13.54;67.30;100159.31;5030857;28;20044;-81
2022/10/06 10:45:03;;;;;;;13.40;2.67;;;;;;;13.49;67.06;100141.22;5050261;28;20631;-79
2022/10/06 10:47:36;;;;;;;13.70;2.30;;;;;;;13.64;67.21;100164.88;5028640;28;20143;-81
2022/10/06 10:50:18;;;;;;;8.88;2.13;;;;;;;13.54;66.67;100160.09;5032077;28;20086;-80
2022/10/06 10:52:48;;;;;;;16.02;2.72;;;;;;;13.49;66.77;100160.00;5055091;28;20392;-81
2022/10/06 10:55:22;;;;;;;12.02;2.63;;;;;;;13.51;67.39;100175.84;5022380;28;20093;-81
2022/10/06 10:57:49;;;;;;;14.82;2.40;;;;;;;13.31;67.16;100162.81;5028975;28;20024;-82
2022/10/06 11:00:26;;;;;;;14.45;2.50;;;;;;;13.45;66.86;100177.59;5016011;28;20025;-82
2022/10/06 11:02:55;;;;;;;13.80;3.03;;;;;;;13.33;67.63;100162.56;5031101;28;20130;-82
2022/10/06 11:05:36;;;;;;;8.05;2.10;;;;;;;13.52;67.22;100161.38;5031456;28;20029;-83
2022/10/06 11:08:10;;;;;;;10.80;2.75;;;;;;;13.54;67.11;100173.50;5051473;28;20104;-83
2022/10/06 11:10:42;;;;;;;14.23;2.75;;;;;;;13.81;66.60;100163.09;5026921;28;20078;-83
2022/10/06 11:13:30;;;;;;;13.25;2.42;;;;;;;14.03;66.67;100174.00;5047972;28;20641;-83
2022/10/06 11:16:10;;;;;;;8.75;2.78;;;;;;;14.13;66.07;100168.84;5028276;28;20029;-83
2022/10/06 11:18:47;;;;;;;10.13;2.55;;;;;;;14.27;66.30;100175.53;5041350;28;20082;-83
2022/10/06 11:21:24;;;;;;;7.55;2.83;;;;;;;14.28;66.18;100155.69;5056327;28;20052;-82
2022/10/06 11:23:53;;;;;;;15.18;2.60;;;;;;;14.41;65.82;100168.88;5033088;28;20101;-83
2022/10/06 11:26:43;;;;;;;12.27;2.40;;;;;;;14.46;66.55;100168.94;5051633;28;20039;-83
2022/10/06 11:29:09;;;;;;;8.20;2.20;;;;;;;14.60;65.97;100170.28;5031409;28;20381;-82
2022/10/06 11:31:47;;;;;;;11.05;2.78;;;;;;;14.65;63.82;100146.19;5051192;28;20027;-83
2022/10/06 11:34:13;;;;;;;17.92;2.67;;;;;;;14.71;64.53;100152.44;5040745;28;20051;-82
2022/10/06 11:36:56;;;;;;;8.45;2.47;;;;;;;14.82;63.42;100168.53;5056260;28;20401;-83
2022/10/06 11:40:00;;;;;;;7.13;1.95;;;;;;;14.91;64.13;100171.63;5031689;28;20679;-82
2022/10/06 11:42:45;;;;;;;9.93;2.75;;;;;;;14.65;63.56;100143.50;5018789;28;20037;-83
2022/10/06 11:45:15;;;;;;;11.27;2.45;;;;;;;14.86;63.32;100166.16;5054319;28;20120;-82
2022/10/06 11:48:21;;;;;;;7.45;2.20;;;;;;;14.87;63.23;100160.50;5059481;28;20017;-83
2022/10/06 11:50:50;;;;;;;8.55;2.70;;;;;;;14.78;63.53;100143.19;5034862;28;20020;-82
2022/10/06 11:53:30;;;;;;;12.68;2.63;;;;;;;15.05;61.49;100153.28;5000961;28;20131;-82